sensor_id;sensor_type;location;lat;lon;timestamp;temperature;humidity
53073;DHT22;38955;48.916;2.336;2023-05-20T00:00:49;14.10;92.80
53073;DHT22;38955;48.916;2.336;2023-05-20T00:02:51;14.00;92.70
53073;DHT22;38955;48.916;2.336;2023-05-20T00:04:53;14.00;92.90
53073;DHT22;38955;48.916;2.336;2023-05-20T00:06:56;14.00;92.90
53073;DHT22;38955;48.916;2.336;2023-05-20T00:08:58;14.00;92.90
53073;DHT22;38955;48.916;2.336;2023-05-20T00:11:02;14.00;92.90
53073;DHT22;38955;48.916;2.336;2023-05-20T00:13:04;13.90;93.00
53073;DHT22;38955;48.916;2.336;2023-05-20T00:15:10;14.00;92.90
53073;DHT22;38955;48.916;2.336;2023-05-20T00:17:15;13.90;93.00
53073;DHT22;38955;48.916;2.336;2023-05-20T00:19:17;13.90;93.00
53073;DHT22;38955;48.916;2.336;2023-05-20T00:21:19;13.90;93.10
53073;DHT22;38955;48.916;2.336;2023-05-20T00:23:21;13.90;93.00
53073;DHT22;38955;48.916;2.336;2023-05-20T00:25:23;13.80;93.10
53073;DHT22;38955;48.916;2.336;2023-05-20T00:27:26;13.80;93.10
53073;DHT22;38955;48.916;2.336;2023-05-20T00:29:28;13.80;93.10
53073;DHT22;38955;48.916;2.336;2023-05-20T00:31:31;13.80;93.20
53073;DHT22;38955;48.916;2.336;2023-05-20T00:33:33;13.80;93.10
53073;DHT22;38955;48.916;2.336;2023-05-20T00:35:37;13.80;93.10
53073;DHT22;38955;48.916;2.336;2023-05-20T00:37:39;13.80;93.10
53073;DHT22;38955;48.916;2.336;2023-05-20T00:39:41;13.80;93.20
53073;DHT22;38955;48.916;2.336;2023-05-20T00:41:43;13.70;93.20
53073;DHT22;38955;48.916;2.336;2023-05-20T00:43:46;13.70;93.20
53073;DHT22;38955;48.916;2.336;2023-05-20T00:45:49;13.70;93.20
53073;DHT22;38955;48.916;2.336;2023-05-20T00:47:52;13.80;93.20
53073;DHT22;38955;48.916;2.336;2023-05-20T00:49:58;13.80;93.10
53073;DHT22;38955;48.916;2.336;2023-05-20T00:52:01;13.80;93.20
53073;DHT22;38955;48.916;2.336;2023-05-20T00:54:03;13.80;93.20
53073;DHT22;38955;48.916;2.336;2023-05-20T00:56:07;13.80;93.20
53073;DHT22;38955;48.916;2.336;2023-05-20T00:58:09;13.70;93.20
53073;DHT22;38955;48.916;2.336;2023-05-20T01:00:14;13.70;93.20
53073;DHT22;38955;48.916;2.336;2023-05-20T01:02:18;13.80;93.30
53073;DHT22;38955;48.916;2.336;2023-05-20T01:04:20;13.80;93.20
53073;DHT22;38955;48.916;2.336;2023-05-20T01:06:22;13.70;93.20
53073;DHT22;38955;48.916;2.336;2023-05-20T01:08:25;13.70;93.40
53073;DHT22;38955;48.916;2.336;2023-05-20T01:10:28;13.60;93.50
53073;DHT22;38955;48.916;2.336;2023-05-20T01:12:36;13.60;93.50
53073;DHT22;38955;48.916;2.336;2023-05-20T01:14:42;13.60;93.60
53073;DHT22;38955;48.916;2.336;2023-05-20T01:16:48;13.60;93.50
53073;DHT22;38955;48.916;2.336;2023-05-20T01:18:54;13.60;93.50
53073;DHT22;38955;48.916;2.336;2023-05-20T01:20:58;13.50;93.80
53073;DHT22;38955;48.916;2.336;2023-05-20T01:23:03;13.50;93.60
53073;DHT22;38955;48.916;2.336;2023-05-20T01:25:07;13.40;93.70
53073;DHT22;38955;48.916;2.336;2023-05-20T01:27:10;13.40;93.80
53073;DHT22;38955;48.916;2.336;2023-05-20T01:29:14;13.40;93.80
53073;DHT22;38955;48.916;2.336;2023-05-20T01:31:19;13.40;94.00
53073;DHT22;38955;48.916;2.336;2023-05-20T01:33:24;13.30;94.10
53073;DHT22;38955;48.916;2.336;2023-05-20T01:35:28;13.30;94.10
53073;DHT22;38955;48.916;2.336;2023-05-20T01:37:30;13.20;94.10
53073;DHT22;38955;48.916;2.336;2023-05-20T01:39:35;13.20;94.20
53073;DHT22;38955;48.916;2.336;2023-05-20T01:41:39;13.20;94.20
53073;DHT22;38955;48.916;2.336;2023-05-20T01:43:42;13.20;94.20
53073;DHT22;38955;48.916;2.336;2023-05-20T01:45:47;13.30;94.20
53073;DHT22;38955;48.916;2.336;2023-05-20T01:47:49;13.10;94.40
53073;DHT22;38955;48.916;2.336;2023-05-20T01:49:52;13.10;94.60
53073;DHT22;38955;48.916;2.336;2023-05-20T01:51:55;13.00;94.70
53073;DHT22;38955;48.916;2.336;2023-05-20T01:53:58;13.00;94.80
53073;DHT22;38955;48.916;2.336;2023-05-20T01:56:01;13.00;94.80
53073;DHT22;38955;48.916;2.336;2023-05-20T01:58:05;13.00;95.20
53073;DHT22;38955;48.916;2.336;2023-05-20T02:00:07;12.90;94.90
53073;DHT22;38955;48.916;2.336;2023-05-20T02:02:10;13.00;94.90
53073;DHT22;38955;48.916;2.336;2023-05-20T02:04:12;13.00;94.90
53073;DHT22;38955;48.916;2.336;2023-05-20T02:06:15;12.90;95.00
53073;DHT22;38955;48.916;2.336;2023-05-20T02:08:17;12.90;95.10
53073;DHT22;38955;48.916;2.336;2023-05-20T02:10:19;12.90;95.20
53073;DHT22;38955;48.916;2.336;2023-05-20T02:12:23;12.90;95.30
53073;DHT22;38955;48.916;2.336;2023-05-20T02:14:25;12.80;95.30
53073;DHT22;38955;48.916;2.336;2023-05-20T02:16:27;12.90;95.30
53073;DHT22;38955;48.916;2.336;2023-05-20T02:18:29;12.80;95.40
53073;DHT22;38955;48.916;2.336;2023-05-20T02:20:37;12.80;95.50
53073;DHT22;38955;48.916;2.336;2023-05-20T02:22:39;12.80;95.50
53073;DHT22;38955;48.916;2.336;2023-05-20T02:24:41;12.80;95.50
53073;DHT22;38955;48.916;2.336;2023-05-20T02:26:45;12.80;95.60
53073;DHT22;38955;48.916;2.336;2023-05-20T02:28:49;12.90;95.40
53073;DHT22;38955;48.916;2.336;2023-05-20T02:30:52;12.80;95.40
53073;DHT22;38955;48.916;2.336;2023-05-20T02:32:54;12.80;95.50
53073;DHT22;38955;48.916;2.336;2023-05-20T02:34:56;12.80;95.70
53073;DHT22;38955;48.916;2.336;2023-05-20T02:36:58;12.70;95.70
53073;DHT22;38955;48.916;2.336;2023-05-20T02:39:01;12.70;95.90
53073;DHT22;38955;48.916;2.336;2023-05-20T02:41:03;12.70;95.80
53073;DHT22;38955;48.916;2.336;2023-05-20T02:43:05;12.80;95.90
53073;DHT22;38955;48.916;2.336;2023-05-20T02:45:09;12.80;95.80
53073;DHT22;38955;48.916;2.336;2023-05-20T02:47:13;12.80;95.80
53073;DHT22;38955;48.916;2.336;2023-05-20T02:49:15;12.70;96.10
53073;DHT22;38955;48.916;2.336;2023-05-20T02:51:17;12.80;96.00
53073;DHT22;38955;48.916;2.336;2023-05-20T02:53:19;12.80;95.90
53073;DHT22;38955;48.916;2.336;2023-05-20T02:55:21;12.80;96.00
53073;DHT22;38955;48.916;2.336;2023-05-20T02:57:24;12.70;96.10
53073;DHT22;38955;48.916;2.336;2023-05-20T02:59:29;12.80;96.10
53073;DHT22;38955;48.916;2.336;2023-05-20T03:01:33;12.80;96.20
53073;DHT22;38955;48.916;2.336;2023-05-20T03:03:37;12.80;96.10
53073;DHT22;38955;48.916;2.336;2023-05-20T03:05:39;12.70;96.30
53073;DHT22;38955;48.916;2.336;2023-05-20T03:07:43;12.70;96.50
53073;DHT22;38955;48.916;2.336;2023-05-20T03:09:47;12.70;96.30
53073;DHT22;38955;48.916;2.336;2023-05-20T03:11:49;12.70;96.30
53073;DHT22;38955;48.916;2.336;2023-05-20T03:13:51;12.80;96.30
53073;DHT22;38955;48.916;2.336;2023-05-20T03:15:54;12.80;96.40
53073;DHT22;38955;48.916;2.336;2023-05-20T03:17:57;12.80;96.30
53073;DHT22;38955;48.916;2.336;2023-05-20T03:20:00;12.80;96.10
53073;DHT22;38955;48.916;2.336;2023-05-20T03:22:03;12.80;96.20
53073;DHT22;38955;48.916;2.336;2023-05-20T03:24:06;12.80;96.20
53073;DHT22;38955;48.916;2.336;2023-05-20T03:26:08;12.80;96.30
53073;DHT22;38955;48.916;2.336;2023-05-20T03:28:10;12.80;96.30
53073;DHT22;38955;48.916;2.336;2023-05-20T03:30:12;12.80;96.30
53073;DHT22;38955;48.916;2.336;2023-05-20T03:32:14;12.80;96.40
53073;DHT22;38955;48.916;2.336;2023-05-20T03:34:18;12.80;96.40
53073;DHT22;38955;48.916;2.336;2023-05-20T03:36:21;12.80;96.30
53073;DHT22;38955;48.916;2.336;2023-05-20T03:38:23;12.80;96.40
53073;DHT22;38955;48.916;2.336;2023-05-20T03:40:25;12.80;96.40
53073;DHT22;38955;48.916;2.336;2023-05-20T03:42:27;12.80;96.30
53073;DHT22;38955;48.916;2.336;2023-05-20T03:44:29;12.80;96.40
53073;DHT22;38955;48.916;2.336;2023-05-20T03:46:31;12.80;96.30
53073;DHT22;38955;48.916;2.336;2023-05-20T03:48:35;12.80;96.30
53073;DHT22;38955;48.916;2.336;2023-05-20T03:50:39;12.80;96.30
53073;DHT22;38955;48.916;2.336;2023-05-20T03:52:41;12.90;96.30
53073;DHT22;38955;48.916;2.336;2023-05-20T03:54:43;12.90;96.50
53073;DHT22;38955;48.916;2.336;2023-05-20T03:56:45;12.90;96.30
53073;DHT22;38955;48.916;2.336;2023-05-20T03:58:48;12.90;96.20
53073;DHT22;38955;48.916;2.336;2023-05-20T04:00:50;12.90;96.20
53073;DHT22;38955;48.916;2.336;2023-05-20T04:02:52;12.90;96.30
53073;DHT22;38955;48.916;2.336;2023-05-20T04:04:55;12.90;96.20
53073;DHT22;38955;48.916;2.336;2023-05-20T04:06:59;12.90;96.20
53073;DHT22;38955;48.916;2.336;2023-05-20T04:09:02;12.90;96.20
53073;DHT22;38955;48.916;2.336;2023-05-20T04:11:04;12.90;96.20
53073;DHT22;38955;48.916;2.336;2023-05-20T04:13:07;12.90;96.20
53073;DHT22;38955;48.916;2.336;2023-05-20T04:15:10;12.90;96.20
53073;DHT22;38955;48.916;2.336;2023-05-20T04:17:12;12.90;96.40
53073;DHT22;38955;48.916;2.336;2023-05-20T04:19:15;12.90;96.30
53073;DHT22;38955;48.916;2.336;2023-05-20T04:21:20;12.90;96.30
53073;DHT22;38955;48.916;2.336;2023-05-20T04:23:23;12.90;96.40
53073;DHT22;38955;48.916;2.336;2023-05-20T04:25:25;12.80;96.40
53073;DHT22;38955;48.916;2.336;2023-05-20T04:27:28;12.80;96.60
53073;DHT22;38955;48.916;2.336;2023-05-20T04:29:31;12.80;96.50
53073;DHT22;38955;48.916;2.336;2023-05-20T04:31:35;12.90;96.40
53073;DHT22;38955;48.916;2.336;2023-05-20T04:33:37;12.80;96.40
53073;DHT22;38955;48.916;2.336;2023-05-20T04:35:39;12.90;96.40
53073;DHT22;38955;48.916;2.336;2023-05-20T04:37:42;12.90;96.40
53073;DHT22;38955;48.916;2.336;2023-05-20T04:39:50;12.90;96.50
53073;DHT22;38955;48.916;2.336;2023-05-20T04:41:53;12.80;96.50
53073;DHT22;38955;48.916;2.336;2023-05-20T04:43:56;12.80;96.70
53073;DHT22;38955;48.916;2.336;2023-05-20T04:46:00;12.80;96.70
53073;DHT22;38955;48.916;2.336;2023-05-20T04:48:06;12.80;96.70
53073;DHT22;38955;48.916;2.336;2023-05-20T04:50:10;12.80;96.60
53073;DHT22;38955;48.916;2.336;2023-05-20T04:52:12;12.80;96.70
53073;DHT22;38955;48.916;2.336;2023-05-20T04:54:15;12.70;96.80
53073;DHT22;38955;48.916;2.336;2023-05-20T04:56:20;12.70;96.80
53073;DHT22;38955;48.916;2.336;2023-05-20T04:58:22;12.70;96.90
53073;DHT22;38955;48.916;2.336;2023-05-20T05:00:25;12.80;96.80
53073;DHT22;38955;48.916;2.336;2023-05-20T05:02:27;12.70;96.80
53073;DHT22;38955;48.916;2.336;2023-05-20T05:04:30;12.70;96.80
53073;DHT22;38955;48.916;2.336;2023-05-20T05:06:32;12.70;96.90
53073;DHT22;38955;48.916;2.336;2023-05-20T05:08:34;12.70;97.00
53073;DHT22;38955;48.916;2.336;2023-05-20T05:10:38;12.80;97.00
53073;DHT22;38955;48.916;2.336;2023-05-20T05:12:42;12.80;96.80
53073;DHT22;38955;48.916;2.336;2023-05-20T05:14:44;12.80;96.90
53073;DHT22;38955;48.916;2.336;2023-05-20T05:16:46;12.80;96.90
53073;DHT22;38955;48.916;2.336;2023-05-20T05:18:48;12.80;97.10
53073;DHT22;38955;48.916;2.336;2023-05-20T05:20:58;12.80;97.00
53073;DHT22;38955;48.916;2.336;2023-05-20T05:22:59;12.80;96.80
53073;DHT22;38955;48.916;2.336;2023-05-20T05:25:02;12.80;96.90
53073;DHT22;38955;48.916;2.336;2023-05-20T05:27:04;12.80;96.80
53073;DHT22;38955;48.916;2.336;2023-05-20T05:29:08;12.80;96.80
53073;DHT22;38955;48.916;2.336;2023-05-20T05:31:12;12.90;96.80
53073;DHT22;38955;48.916;2.336;2023-05-20T05:33:15;12.90;96.70
53073;DHT22;38955;48.916;2.336;2023-05-20T05:35:17;12.90;96.70
53073;DHT22;38955;48.916;2.336;2023-05-20T05:37:19;12.90;96.70
53073;DHT22;38955;48.916;2.336;2023-05-20T05:39:21;12.90;96.70
53073;DHT22;38955;48.916;2.336;2023-05-20T05:41:23;12.90;96.60
53073;DHT22;38955;48.916;2.336;2023-05-20T05:43:25;13.00;96.60
53073;DHT22;38955;48.916;2.336;2023-05-20T05:45:29;12.90;96.70
53073;DHT22;38955;48.916;2.336;2023-05-20T05:47:31;12.90;96.50
53073;DHT22;38955;48.916;2.336;2023-05-20T05:49:33;13.00;96.70
53073;DHT22;38955;48.916;2.336;2023-05-20T05:51:36;12.90;97.00
53073;DHT22;38955;48.916;2.336;2023-05-20T05:53:39;12.90;96.70
53073;DHT22;38955;48.916;2.336;2023-05-20T05:55:42;13.00;96.80
53073;DHT22;38955;48.916;2.336;2023-05-20T05:57:44;13.00;96.60
53073;DHT22;38955;48.916;2.336;2023-05-20T05:59:46;13.00;96.60
53073;DHT22;38955;48.916;2.336;2023-05-20T06:01:50;13.00;96.70
53073;DHT22;38955;48.916;2.336;2023-05-20T06:03:52;13.10;96.50
53073;DHT22;38955;48.916;2.336;2023-05-20T06:05:54;13.20;96.50
53073;DHT22;38955;48.916;2.336;2023-05-20T06:07:57;13.10;96.60
53073;DHT22;38955;48.916;2.336;2023-05-20T06:09:59;13.10;96.70
53073;DHT22;38955;48.916;2.336;2023-05-20T06:12:01;13.10;96.40
53073;DHT22;38955;48.916;2.336;2023-05-20T06:14:03;13.10;96.40
53073;DHT22;38955;48.916;2.336;2023-05-20T06:16:06;13.30;96.50
53073;DHT22;38955;48.916;2.336;2023-05-20T06:18:09;13.30;96.30
53073;DHT22;38955;48.916;2.336;2023-05-20T06:20:13;13.30;96.20
53073;DHT22;38955;48.916;2.336;2023-05-20T06:22:15;13.20;96.30
53073;DHT22;38955;48.916;2.336;2023-05-20T06:24:17;13.20;96.50
53073;DHT22;38955;48.916;2.336;2023-05-20T06:26:19;13.30;96.50
53073;DHT22;38955;48.916;2.336;2023-05-20T06:28:21;13.30;96.50
53073;DHT22;38955;48.916;2.336;2023-05-20T06:30:23;13.40;96.40
53073;DHT22;38955;48.916;2.336;2023-05-20T06:32:26;13.40;96.10
53073;DHT22;38955;48.916;2.336;2023-05-20T06:34:30;13.40;96.10
53073;DHT22;38955;48.916;2.336;2023-05-20T06:36:32;13.50;96.30
53073;DHT22;38955;48.916;2.336;2023-05-20T06:38:34;13.50;96.20
53073;DHT22;38955;48.916;2.336;2023-05-20T06:40:37;13.50;96.00
53073;DHT22;38955;48.916;2.336;2023-05-20T06:42:39;13.50;96.00
53073;DHT22;38955;48.916;2.336;2023-05-20T06:44:42;13.60;96.30
53073;DHT22;38955;48.916;2.336;2023-05-20T06:46:45;13.70;95.90
53073;DHT22;38955;48.916;2.336;2023-05-20T06:48:48;13.70;95.80
53073;DHT22;38955;48.916;2.336;2023-05-20T06:50:51;13.80;95.80
53073;DHT22;38955;48.916;2.336;2023-05-20T06:52:54;13.90;95.60
53073;DHT22;38955;48.916;2.336;2023-05-20T06:54:56;14.00;95.50
53073;DHT22;38955;48.916;2.336;2023-05-20T06:56:58;14.00;95.40
53073;DHT22;38955;48.916;2.336;2023-05-20T06:59:00;14.00;95.40
53073;DHT22;38955;48.916;2.336;2023-05-20T07:01:02;14.10;95.50
53073;DHT22;38955;48.916;2.336;2023-05-20T07:03:05;14.20;95.30
53073;DHT22;38955;48.916;2.336;2023-05-20T07:05:08;14.20;95.30
53073;DHT22;38955;48.916;2.336;2023-05-20T07:07:12;14.40;95.10
53073;DHT22;38955;48.916;2.336;2023-05-20T07:09:17;14.50;95.00
53073;DHT22;38955;48.916;2.336;2023-05-20T07:11:20;14.60;94.80
53073;DHT22;38955;48.916;2.336;2023-05-20T07:13:22;14.70;94.80
53073;DHT22;38955;48.916;2.336;2023-05-20T07:15:24;14.80;94.60
53073;DHT22;38955;48.916;2.336;2023-05-20T07:17:27;15.00;94.40
53073;DHT22;38955;48.916;2.336;2023-05-20T07:19:30;15.10;94.00
53073;DHT22;38955;48.916;2.336;2023-05-20T07:21:32;15.10;94.10
53073;DHT22;38955;48.916;2.336;2023-05-20T07:23:36;15.20;93.90
53073;DHT22;38955;48.916;2.336;2023-05-20T07:25:38;15.20;94.00
53073;DHT22;38955;48.916;2.336;2023-05-20T07:27:41;15.40;93.80
53073;DHT22;38955;48.916;2.336;2023-05-20T07:29:43;15.40;93.40
53073;DHT22;38955;48.916;2.336;2023-05-20T07:31:46;15.50;93.60
53073;DHT22;38955;48.916;2.336;2023-05-20T07:33:48;15.70;93.20
53073;DHT22;38955;48.916;2.336;2023-05-20T07:35:50;15.80;93.20
53073;DHT22;38955;48.916;2.336;2023-05-20T07:37:55;15.90;93.00
53073;DHT22;38955;48.916;2.336;2023-05-20T07:39:58;15.90;93.00
53073;DHT22;38955;48.916;2.336;2023-05-20T07:42:01;16.00;92.70
53073;DHT22;38955;48.916;2.336;2023-05-20T07:44:04;16.00;92.60
53073;DHT22;38955;48.916;2.336;2023-05-20T07:46:09;16.20;92.60
53073;DHT22;38955;48.916;2.336;2023-05-20T07:48:11;16.40;92.40
53073;DHT22;38955;48.916;2.336;2023-05-20T07:50:14;16.30;92.20
53073;DHT22;38955;48.916;2.336;2023-05-20T07:52:16;16.40;91.90
53073;DHT22;38955;48.916;2.336;2023-05-20T07:54:18;16.50;92.10
53073;DHT22;38955;48.916;2.336;2023-05-20T07:56:21;16.50;92.00
53073;DHT22;38955;48.916;2.336;2023-05-20T07:58:23;16.60;91.80
53073;DHT22;38955;48.916;2.336;2023-05-20T08:00:26;16.70;91.70
53073;DHT22;38955;48.916;2.336;2023-05-20T08:02:28;16.70;91.50
53073;DHT22;38955;48.916;2.336;2023-05-20T08:04:30;16.70;91.60
53073;DHT22;38955;48.916;2.336;2023-05-20T08:06:32;16.80;91.40
53073;DHT22;38955;48.916;2.336;2023-05-20T08:08:36;16.90;91.70
53073;DHT22;38955;48.916;2.336;2023-05-20T08:10:38;16.90;91.50
53073;DHT22;38955;48.916;2.336;2023-05-20T08:12:41;17.00;91.10
53073;DHT22;38955;48.916;2.336;2023-05-20T08:14:43;17.00;91.20
53073;DHT22;38955;48.916;2.336;2023-05-20T08:16:46;17.00;91.30
53073;DHT22;38955;48.916;2.336;2023-05-20T08:18:48;17.20;91.20
53073;DHT22;38955;48.916;2.336;2023-05-20T08:20:50;17.40;91.20
53073;DHT22;38955;48.916;2.336;2023-05-20T08:22:52;17.50;90.90
53073;DHT22;38955;48.916;2.336;2023-05-20T08:24:54;17.70;91.20
53073;DHT22;38955;48.916;2.336;2023-05-20T08:26:56;17.70;90.40
53073;DHT22;38955;48.916;2.336;2023-05-20T08:29:00;17.70;90.30
53073;DHT22;38955;48.916;2.336;2023-05-20T08:31:02;17.60;90.50
53073;DHT22;38955;48.916;2.336;2023-05-20T08:33:04;17.70;90.80
53073;DHT22;38955;48.916;2.336;2023-05-20T08:35:07;17.70;90.80
53073;DHT22;38955;48.916;2.336;2023-05-20T08:37:10;17.80;90.90
53073;DHT22;38955;48.916;2.336;2023-05-20T08:39:12;17.90;90.60
53073;DHT22;38955;48.916;2.336;2023-05-20T08:41:14;17.70;89.70
53073;DHT22;38955;48.916;2.336;2023-05-20T08:43:16;17.60;90.10
53073;DHT22;38955;48.916;2.336;2023-05-20T08:45:20;17.70;90.40
53073;DHT22;38955;48.916;2.336;2023-05-20T08:47:28;17.70;90.30
53073;DHT22;38955;48.916;2.336;2023-05-20T08:49:31;17.70;89.80
53073;DHT22;38955;48.916;2.336;2023-05-20T08:51:36;17.80;90.00
53073;DHT22;38955;48.916;2.336;2023-05-20T08:53:39;17.60;89.80
53073;DHT22;38955;48.916;2.336;2023-05-20T08:55:42;17.60;90.10
53073;DHT22;38955;48.916;2.336;2023-05-20T08:57:45;17.80;90.40
53073;DHT22;38955;48.916;2.336;2023-05-20T08:59:48;17.90;90.00
53073;DHT22;38955;48.916;2.336;2023-05-20T09:01:51;17.90;90.20
53073;DHT22;38955;48.916;2.336;2023-05-20T09:03:53;17.90;90.10
53073;DHT22;38955;48.916;2.336;2023-05-20T09:06:03;18.00;89.70
53073;DHT22;38955;48.916;2.336;2023-05-20T09:08:05;18.00;88.80
53073;DHT22;38955;48.916;2.336;2023-05-20T09:10:08;18.10;88.80
53073;DHT22;38955;48.916;2.336;2023-05-20T09:12:11;18.10;89.10
53073;DHT22;38955;48.916;2.336;2023-05-20T09:14:13;18.10;89.10
53073;DHT22;38955;48.916;2.336;2023-05-20T09:16:15;18.20;87.20
53073;DHT22;38955;48.916;2.336;2023-05-20T09:18:19;18.30;86.50
53073;DHT22;38955;48.916;2.336;2023-05-20T09:20:24;18.30;87.10
53073;DHT22;38955;48.916;2.336;2023-05-20T09:22:28;18.30;86.30
53073;DHT22;38955;48.916;2.336;2023-05-20T09:24:30;18.30;86.30
53073;DHT22;38955;48.916;2.336;2023-05-20T09:26:32;18.40;86.70
53073;DHT22;38955;48.916;2.336;2023-05-20T09:28:35;18.40;85.80
53073;DHT22;38955;48.916;2.336;2023-05-20T09:30:39;18.40;85.70
53073;DHT22;38955;48.916;2.336;2023-05-20T09:32:42;18.50;86.40
53073;DHT22;38955;48.916;2.336;2023-05-20T09:34:46;18.60;86.70
53073;DHT22;38955;48.916;2.336;2023-05-20T09:36:49;18.70;85.80
53073;DHT22;38955;48.916;2.336;2023-05-20T09:38:52;18.60;85.60
53073;DHT22;38955;48.916;2.336;2023-05-20T09:40:55;18.70;86.10
53073;DHT22;38955;48.916;2.336;2023-05-20T09:43:01;18.80;86.30
53073;DHT22;38955;48.916;2.336;2023-05-20T09:45:04;18.90;85.90
53073;DHT22;38955;48.916;2.336;2023-05-20T09:47:08;19.00;85.00
53073;DHT22;38955;48.916;2.336;2023-05-20T09:49:10;18.90;85.20
53073;DHT22;38955;48.916;2.336;2023-05-20T09:51:15;19.10;84.50
53073;DHT22;38955;48.916;2.336;2023-05-20T09:53:18;19.20;84.00
53073;DHT22;38955;48.916;2.336;2023-05-20T09:55:23;19.10;83.90
53073;DHT22;38955;48.916;2.336;2023-05-20T09:57:25;19.10;83.40
53073;DHT22;38955;48.916;2.336;2023-05-20T09:59:29;19.20;84.20
53073;DHT22;38955;48.916;2.336;2023-05-20T10:01:32;19.40;84.20
53073;DHT22;38955;48.916;2.336;2023-05-20T10:03:34;19.60;84.30
53073;DHT22;38955;48.916;2.336;2023-05-20T10:05:39;19.70;82.20
53073;DHT22;38955;48.916;2.336;2023-05-20T10:08:21;19.80;82.00
53073;DHT22;38955;48.916;2.336;2023-05-20T10:10:35;19.60;81.60
53073;DHT22;38955;48.916;2.336;2023-05-20T10:12:55;19.60;81.90
53073;DHT22;38955;48.916;2.336;2023-05-20T10:15:06;19.60;81.90
53073;DHT22;38955;48.916;2.336;2023-05-20T10:17:16;19.60;81.80
53073;DHT22;38955;48.916;2.336;2023-05-20T10:19:28;19.70;81.80
53073;DHT22;38955;48.916;2.336;2023-05-20T10:21:33;19.70;81.80
53073;DHT22;38955;48.916;2.336;2023-05-20T10:23:37;19.80;81.40
53073;DHT22;38955;48.916;2.336;2023-05-20T10:25:49;19.90;80.90
53073;DHT22;38955;48.916;2.336;2023-05-20T10:28:03;20.00;80.30
53073;DHT22;38955;48.916;2.336;2023-05-20T10:30:14;20.00;80.50
53073;DHT22;38955;48.916;2.336;2023-05-20T10:32:23;19.90;80.10
53073;DHT22;38955;48.916;2.336;2023-05-20T10:34:26;19.80;79.80
53073;DHT22;38955;48.916;2.336;2023-05-20T10:36:28;19.90;80.20
53073;DHT22;38955;48.916;2.336;2023-05-20T10:38:33;19.80;79.40
53073;DHT22;38955;48.916;2.336;2023-05-20T10:40:37;19.90;79.20
53073;DHT22;38955;48.916;2.336;2023-05-20T10:42:39;20.00;78.90
53073;DHT22;38955;48.916;2.336;2023-05-20T10:44:42;19.90;78.80
53073;DHT22;38955;48.916;2.336;2023-05-20T10:46:45;19.80;78.80
53073;DHT22;38955;48.916;2.336;2023-05-20T10:49:17;19.90;79.50
53073;DHT22;38955;48.916;2.336;2023-05-20T10:51:20;20.00;79.60
53073;DHT22;38955;48.916;2.336;2023-05-20T10:53:23;20.10;79.90
53073;DHT22;38955;48.916;2.336;2023-05-20T10:55:37;20.30;80.10
53073;DHT22;38955;48.916;2.336;2023-05-20T10:57:39;20.50;79.00
53073;DHT22;38955;48.916;2.336;2023-05-20T10:59:42;20.30;77.50
53073;DHT22;38955;48.916;2.336;2023-05-20T11:01:45;20.30;77.20
53073;DHT22;38955;48.916;2.336;2023-05-20T11:03:48;20.40;76.80
53073;DHT22;38955;48.916;2.336;2023-05-20T11:05:51;20.50;75.30
53073;DHT22;38955;48.916;2.336;2023-05-20T11:08:00;20.50;75.40
53073;DHT22;38955;48.916;2.336;2023-05-20T11:10:08;20.70;74.10
53073;DHT22;38955;48.916;2.336;2023-05-20T11:12:12;20.60;73.90
53073;DHT22;38955;48.916;2.336;2023-05-20T11:14:15;20.70;74.60
53073;DHT22;38955;48.916;2.336;2023-05-20T11:16:19;20.60;72.70
53073;DHT22;38955;48.916;2.336;2023-05-20T11:18:22;20.70;73.60
53073;DHT22;38955;48.916;2.336;2023-05-20T11:20:25;20.60;72.40
53073;DHT22;38955;48.916;2.336;2023-05-20T11:22:28;20.60;72.70
53073;DHT22;38955;48.916;2.336;2023-05-20T11:24:31;20.50;72.30
53073;DHT22;38955;48.916;2.336;2023-05-20T11:26:33;20.50;71.30
53073;DHT22;38955;48.916;2.336;2023-05-20T11:28:37;20.50;71.50
53073;DHT22;38955;48.916;2.336;2023-05-20T11:30:41;20.50;72.40
53073;DHT22;38955;48.916;2.336;2023-05-20T11:32:43;20.60;73.30
53073;DHT22;38955;48.916;2.336;2023-05-20T11:34:50;20.70;73.20
53073;DHT22;38955;48.916;2.336;2023-05-20T11:36:55;20.60;72.50
53073;DHT22;38955;48.916;2.336;2023-05-20T11:38:58;20.60;72.10
53073;DHT22;38955;48.916;2.336;2023-05-20T11:41:00;20.70;73.10
53073;DHT22;38955;48.916;2.336;2023-05-20T11:43:03;20.90;73.20
53073;DHT22;38955;48.916;2.336;2023-05-20T11:45:12;20.90;72.90
53073;DHT22;38955;48.916;2.336;2023-05-20T11:47:14;20.90;72.50
53073;DHT22;38955;48.916;2.336;2023-05-20T11:49:20;20.80;72.30
53073;DHT22;38955;48.916;2.336;2023-05-20T11:51:23;20.90;73.20
53073;DHT22;38955;48.916;2.336;2023-05-20T11:53:25;20.80;74.60
53073;DHT22;38955;48.916;2.336;2023-05-20T11:55:27;21.00;75.00
53073;DHT22;38955;48.916;2.336;2023-05-20T11:57:30;21.10;75.30
53073;DHT22;38955;48.916;2.336;2023-05-20T11:59:32;21.30;75.70
53073;DHT22;38955;48.916;2.336;2023-05-20T12:01:37;21.40;75.20
53073;DHT22;38955;48.916;2.336;2023-05-20T12:03:43;21.40;75.40
53073;DHT22;38955;48.916;2.336;2023-05-20T12:05:46;21.40;74.60
53073;DHT22;38955;48.916;2.336;2023-05-20T12:07:49;21.40;74.10
53073;DHT22;38955;48.916;2.336;2023-05-20T12:09:51;21.40;74.30
53073;DHT22;38955;48.916;2.336;2023-05-20T12:11:53;21.40;74.00
53073;DHT22;38955;48.916;2.336;2023-05-20T12:13:57;21.40;74.40
53073;DHT22;38955;48.916;2.336;2023-05-20T12:15:59;21.50;74.40
53073;DHT22;38955;48.916;2.336;2023-05-20T12:18:03;21.40;74.60
53073;DHT22;38955;48.916;2.336;2023-05-20T12:20:06;21.40;74.80
53073;DHT22;38955;48.916;2.336;2023-05-20T12:22:09;21.30;74.60
53073;DHT22;38955;48.916;2.336;2023-05-20T12:24:11;21.40;75.00
53073;DHT22;38955;48.916;2.336;2023-05-20T12:26:13;21.40;75.00
53073;DHT22;38955;48.916;2.336;2023-05-20T12:28:15;21.60;75.20
53073;DHT22;38955;48.916;2.336;2023-05-20T12:30:21;21.70;74.60
53073;DHT22;38955;48.916;2.336;2023-05-20T12:32:24;21.80;74.50
53073;DHT22;38955;48.916;2.336;2023-05-20T12:34:27;21.80;74.50
53073;DHT22;38955;48.916;2.336;2023-05-20T12:36:29;21.50;73.80
53073;DHT22;38955;48.916;2.336;2023-05-20T12:38:32;21.30;74.50
53073;DHT22;38955;48.916;2.336;2023-05-20T12:40:36;21.20;75.30
53073;DHT22;38955;48.916;2.336;2023-05-20T12:42:40;21.10;75.50
53073;DHT22;38955;48.916;2.336;2023-05-20T12:44:42;21.20;75.30
53073;DHT22;38955;48.916;2.336;2023-05-20T12:46:44;21.30;75.90
53073;DHT22;38955;48.916;2.336;2023-05-20T12:48:47;21.40;75.60
53073;DHT22;38955;48.916;2.336;2023-05-20T12:50:50;21.40;75.10
53073;DHT22;38955;48.916;2.336;2023-05-20T12:52:53;21.50;75.30
53073;DHT22;38955;48.916;2.336;2023-05-20T12:54:55;21.60;75.30
53073;DHT22;38955;48.916;2.336;2023-05-20T12:56:57;21.80;74.90
53073;DHT22;38955;48.916;2.336;2023-05-20T12:59:00;21.70;74.70